• Join FlightAware (Why Join?)
  • Login
  • US Flag 
01:44PM EDT


 

Airport Tracker/Info


-or-


 

Live Flight TrackerFlight Track Log ✈ N2173F ✈ 27-Jun-2013 ✈ KTLH - KISM

Flight Track Log - Related Links

Times and Time Zones

All times are in EDT time to prevent confusion due to time zone crossing. See the N2173F flight status page for this flight to view local times or setup timezone preferences in your user account.

Time Position Orientation Groundspeed Altitude Reporting Facility
EDT Latitude Longitude Course Direction KTS MPH feet Rate Location/Type
08:47AM 30.2566 -84.1504 125° Southeast  Level Estimated
08:48AM 30.2363 -84.1145 123° Southeast  Level FlightAware Approximate
08:49AM 30.2159 -84.0786 123° Southeast  Level FlightAware Approximate
08:50AM 30.1955 -84.0427 123° Southeast  Level FlightAware Approximate
08:51AM 30.1751 -84.0068 123° Southeast  Level FlightAware Approximate
08:52AM 30.1547 -83.9710 123° Southeast  Level FlightAware Approximate
08:53AM 30.1343 -83.9351 123° Southeast  Level FlightAware Approximate
08:54AM 30.1139 -83.8993 123° Southeast  Level FlightAware Approximate
08:55AM 30.0935 -83.8635 123° Southeast  Level FlightAware Approximate
08:56AM 30.0730 -83.8277 123° Southeast  Level FlightAware Approximate
08:57AM 30.0526 -83.7919 123° Southeast  Level FlightAware Approximate
08:58AM 30.0322 -83.7561 123° Southeast  Level FlightAware Approximate
08:58AM 30.2186 -83.9047 125° Southeast 142 163 5,000  Level Jacksonville Center
08:59AM 30.0117 -83.7204 123° Southeast  Level FlightAware Approximate
08:59AM 30.1939 -83.8706 130° Southeast 142 163 5,000  Level Jacksonville Center
09:00AM 29.9877 -83.6877 126° Southeast  Level Estimated
09:00AM 30.1650 -83.8319 131° Southeast 142 163 5,000  Level Jacksonville Center
09:01AM 29.9663 -83.6527 125° Southeast  Level FlightAware Approximate
09:01AM 30.1422 -83.8031 132° Southeast 142 163 5,000  Level Jacksonville Center
09:02AM 29.9448 -83.6178 125° Southeast  Level FlightAware Approximate
09:02AM 30.1172 -83.7692 130° Southeast 142 163 5,000  Level Jacksonville Center
09:03AM 29.9233 -83.5829 125° Southeast  Level FlightAware Approximate
09:03AM 30.0947 -83.7306 124° Southeast 136 157 5,000  Level Jacksonville Center
09:04AM 30.0697 -83.6967 130° Southeast 136 157 5,000  Level Jacksonville Center
09:05AM 30.0450 -83.6628 130° Southeast 136 157 5,000  Level Jacksonville Center
09:06AM 30.0200 -83.6292 131° Southeast 136 157 5,000  Level Jacksonville Center
09:07AM 29.9953 -83.5953 130° Southeast 136 157 5,000  Level Jacksonville Center
09:08AM 29.9703 -83.5614 130° Southeast 136 157 5,000  Level Jacksonville Center
09:09AM 29.9456 -83.5278 130° Southeast 136 157 5,000  Level Jacksonville Center
09:10AM 29.9206 -83.4942 131° Southeast 136 157 5,000  Level Jacksonville Center
09:11AM 29.8978 -83.4603 128° Southeast 136 157 5,000  Level Jacksonville Center
09:12AM 29.8728 -83.4267 131° Southeast 136 157 5,000  Level Jacksonville Center
09:13AM 29.8500 -83.3956 130° Southeast 136 157 5,000  Level Jacksonville Center
09:14AM 29.8250 -83.3594 129° Southeast 136 157 5,000  Level Jacksonville Center
09:15AM 29.8003 -83.3283 132° Southeast 136 157 5,000  Level Jacksonville Center
09:16AM 29.7753 -83.2922 129° Southeast 136 157 5,000  Level Jacksonville Center
09:17AM 29.7525 -83.2586 128° Southeast 136 157 5,000  Level Jacksonville Center
09:18AM 29.7275 -83.2275 133° Southeast 136 157 5,000  Level Jacksonville Center
09:19AM 29.7025 -83.1939 131° Southeast 131 151 5,000  Level Jacksonville Center
09:20AM 29.6794 -83.1628 130° Southeast 138 159 5,000  Level Jacksonville Center
09:21AM 29.6567 -83.1292 128° Southeast 127 146 5,000  Level Jacksonville Center
09:22AM 29.6317 -83.0981 133° Southeast 136 157 5,000  Level Jacksonville Center
09:23AM 29.6067 -83.0644 131° Southeast 126 145 5,000  Level Jacksonville Center
09:24AM 29.5881 -83.0286 121° Southeast 139 160 5,000  Level Jacksonville Center
09:25AM 29.5733 -82.9906 114° Southeast 126 145 5,000  Level Jacksonville Center
09:26AM 29.5544 -82.9475 117° Southeast 135 155 5,000  Level Jacksonville Center
09:27AM 29.5358 -82.9069 118° Southeast 137 158 5,000  Level Jacksonville Center
09:28AM 29.5233 -82.8736 113° Southeast 136 157 5,000  Level Jacksonville Center
09:29AM 29.5025 -82.8400 125° Southeast 136 157 5,000  Level Jacksonville Center
09:30AM 29.4772 -82.8092 133° Southeast 136 157 5,000  Level Jacksonville Center
09:31AM 29.4522 -82.7758 131° Southeast 136 157 5,000  Level Jacksonville Center
09:32AM 29.4272 -82.7494 137° Southeast 136 157 5,000  Level Jacksonville Center
09:33AM 29.3978 -82.7258 145° Southeast 130 150 5,000  Level Jacksonville Center
09:34AM 29.3686 -82.6947 137° Southeast 134 154 5,000  Level Jacksonville Center
09:35AM 29.3353 -82.6567 135° Southeast 133 153 5,000  Level Jacksonville Center
09:36AM 29.3100 -82.6283 136° Southeast 133 153 5,000  Level Jacksonville Center
09:37AM 29.2850 -82.5950 131° Southeast 133 153 5,000  Level Jacksonville Center
09:38AM 29.2556 -82.5642 138° Southeast 132 152 5,000  Level Jacksonville Center
09:39AM 29.2325 -82.5333 131° Southeast 133 153 5,000  Level Jacksonville Center
09:40AM 29.2053 -82.4928 128° Southeast 130 150 5,000  Level Jacksonville Center
09:41AM 29.1844 -82.4597 126° Southeast 134 154 5,000  Level Jacksonville Center
09:42AM 29.1656 -82.4264 123° Southeast 133 153 5,000  Level Jacksonville Center
09:43AM 29.1361 -82.3886 132° Southeast 131 151 5,000  Level Jacksonville Center
09:44AM 29.1172 -82.3672 135° Southeast 131 151 5,000  Level Jacksonville Center
09:45AM 29.0878 -82.3319 134° Southeast 133 153 5,000  Level Jacksonville Center
09:46AM 29.0628 -82.3033 135° Southeast 134 154 5,000  Level Jacksonville Center
09:47AM 29.0353 -82.2728 136° Southeast 136 157 5,000  Level Jacksonville Center
09:48AM 29.0081 -82.2444 138° Southeast 135 155 5,000  Level Jacksonville Center
09:49AM 28.9786 -82.2114 136° Southeast 136 157 5,000  Level Jacksonville Center
09:50AM 28.9514 -82.1831 138° Southeast 135 155 5,000  Level Jacksonville Center
09:51AM 28.9219 -82.1478 134° Southeast 138 159 5,000  Level Jacksonville Center
09:53AM 28.8833 -82.1000 133° Southeast 139 160 5,000  Level Orlando TRACON
09:54AM 28.8500 -82.0667 139° Southeast 139 160 5,000  Level Orlando TRACON
09:55AM 28.8333 -82.0333 120° Southeast 134 154 5,000  Level Orlando TRACON
09:56AM 28.8000 -82.0000 139° Southeast 139 160 5,000  Level Orlando TRACON
09:57AM 28.7833 -81.9833 139° Southeast 134 154 5,000  Level Orlando TRACON
09:58AM 28.7500 -81.9500 139° Southeast 137 158 5,000  Level Orlando TRACON
09:59AM 28.7167 -81.9167 139° Southeast 139 160 5,000  Level Orlando TRACON
10:00AM 28.7000 -81.8833 120° Southeast 135 155 5,000  Level Orlando TRACON
10:01AM 28.6667 -81.8500 139° Southeast 135 155 5,000 -120 Level Orlando TRACON
10:02AM 28.6500 -81.8333 139° Southeast 139 160 4,800 -300 Descending Orlando TRACON
10:03AM 28.6167 -81.8000 139° Southeast 150 173 4,500 -300 Descending Orlando TRACON
10:04AM 28.5833 -81.7500 127° Southeast 146 168 4,200 -300 Descending Orlando TRACON
10:05AM 28.5500 -81.7167 139° Southeast 146 168 3,900 -360 Descending Orlando TRACON
10:06AM 28.5333 -81.7000 139° Southeast 145 167 3,600 -300 Descending Orlando TRACON
10:07AM 28.5000 -81.6500 127° Southeast 146 168 3,300 -300 Descending Orlando TRACON
10:08AM 28.4667 -81.6167 139° Southeast 148 170 3,000 -300 Descending Orlando TRACON
10:09AM 28.4500 -81.5833 120° Southeast 142 163 2,700 -360 Descending Orlando TRACON
10:10AM 28.4167 -81.5667 156° South 143 165 2,400 -360 Descending Orlando TRACON
10:11AM 28.3833 -81.5333 139° Southeast 139 160 2,000 -240 Descending Orlando TRACON
10:12AM 28.3667 -81.5000 120° Southeast 124 143 2,000 -300 Level Orlando TRACON
10:13AM 28.3333 -81.4667 139° Southeast 119 137 1,400 -660 Descending Orlando TRACON
10:14AM 28.3167 -81.4667 180° South 81 93 800 -660 Descending Orlando TRACON
10:16AM 28.2833 -81.4333 139° Southeast  Level FlightAware Approximate
10:23AM 28.2898 -81.4371 139° Southeast  Level Estimated
10:24AM 28.2898 -81.4371 139° Southeast  Level Estimated
10:25AM 28.2898 -81.4371 139° Southeast  Level Estimated
10:26AM 28.2898 -81.4371 139° Southeast  Level Estimated